Latest Weather Observations for Luncheon Hill

IDT60801

Issued at 12:02 pm EST Thursday 24 May 2018 (issued every 10 minutes, with the page automatically refreshed every 10 minutes)

About weather observations | Map of weather stations | Latest weather observations for TAS | Other Formats
Station Details ID: 091259 Name: LUNCHEON HILL (FORESTRY) Lat: -41.15 Lon: 145.15 Height: 344.0 m
Data from the previous 72 hours. | See also: Recent months at Luncheon Hill
Date/Time
EST
Temp
°C
App
Temp
°C
Dew
Point
°C
Rel
Hum
%
Delta-T
°C
Wind Press
QNH
hPa
Press
MSL
hPa
Rain since
9am
mm
Dir  Spd
km/h
Gust
km/h
Spd
kts
Gust
kts
24/12:00pm 9.7 3.3 5.1 73 2.1 S 28 50 15 27 - - 0.0
24/11:30am 9.8 3.4 5.4 74 2.0 SSW 28 44 15 24 - - 0.0
24/11:16am 10.0 3.6 5.4 73 2.1 SSW 28 46 15 25 - - 0.0
24/11:00am 10.0 4.0 5.2 72 2.2 SSW 26 43 14 23 - - 0.0
24/10:30am 9.4 4.3 5.9 79 1.6 SSW 22 35 12 19 - - 0.0
24/10:00am 8.9 4.3 5.6 80 1.5 SSW 19 30 10 16 - - 0.0
24/09:30am 8.3 3.7 5.4 82 1.3 SSW 19 30 10 16 - - 0.0
24/09:00am 7.8 3.2 5.6 86 1.0 SSW 19 28 10 15 - - 0.4
24/08:30am 7.3 2.5 5.4 88 0.9 SSW 20 30 11 16 - - 0.4
24/08:00am 6.7 1.9 4.7 87 0.9 SSW 19 24 10 13 - - 0.4
24/07:30am 7.0 2.0 4.5 84 1.1 SSW 20 26 11 14 - - 0.4
24/07:00am 7.1 2.1 4.8 85 1.0 SSW 20 26 11 14 - - 0.4
24/06:30am 6.9 2.5 4.9 87 0.9 SSW 17 24 9 13 - - 0.4
24/06:00am 7.2 1.9 5.0 86 1.0 S 22 30 12 16 - - 0.4
24/05:30am 7.0 2.1 5.0 87 0.9 SSW 20 28 11 15 - - 0.4
24/05:00am 7.5 2.6 5.0 84 1.1 SSW 20 30 11 16 - - 0.4
24/04:30am 7.0 2.1 5.0 87 0.9 SSW 20 28 11 15 - - 0.4
24/04:00am 7.4 2.2 5.4 87 0.9 SSW 22 30 12 16 - - 0.4
24/03:30am 7.7 2.2 5.8 88 0.9 S 24 33 13 18 - - 0.4
24/03:00am 8.0 2.6 6.5 90 0.7 SSW 24 32 13 17 - - 0.4
24/02:30am 7.9 3.0 7.0 94 0.4 SSW 22 32 12 17 - - 0.4
24/02:00am 8.1 3.7 7.2 94 0.4 SSW 20 32 11 17 - - 0.4
24/01:30am 8.1 3.8 6.9 92 0.6 SSW 19 30 10 16 - - 0.2
24/01:00am 8.0 3.5 6.8 92 0.6 SSW 20 28 11 15 - - 0.2
24/12:30am 8.1 3.8 7.2 94 0.4 SSW 19 26 10 14 - - 0.2
24/12:00am 8.2 3.8 7.4 95 0.4 SSW 20 26 11 14 - - 0.2
 
Date/Time
EST
Temp
°C
App
Temp
°C
Dew
Point
°C
Rel
Hum
%
Delta-T
°C
Wind Press
QNH
hPa
Press
MSL
hPa
Rain since
9am
mm
Dir  Spd
km/h
Gust
km/h
Spd
kts
Gust
kts
23/11:30pm 8.6 4.5 7.7 94 0.4 SSW 19 26 10 14 - - 0.2
23/11:00pm 8.8 4.6 8.2 96 0.3 SSW 20 28 11 15 - - 0.2
23/10:30pm 9.1 5.6 8.6 97 0.2 SSW 17 26 9 14 - - 0.2
23/10:00pm 9.3 5.4 8.7 96 0.3 SW 19 30 10 16 - - 0.2
23/09:30pm 9.5 5.6 8.6 94 0.4 SW 19 30 10 16 - - 0.2
23/09:00pm 9.6 5.5 8.7 94 0.4 SSW 20 33 11 18 - - 0.2
23/08:30pm 9.7 5.7 8.9 95 0.4 SW 20 28 11 15 - - 0.2
23/08:00pm 9.7 5.7 8.9 95 0.4 SSW 20 32 11 17 - - 0.2
23/07:30pm 9.8 5.5 9.2 96 0.3 SSW 22 35 12 19 - - 0.2
23/07:00pm 9.7 5.4 9.4 98 0.2 SW 22 43 12 23 - - 0.2
23/06:30pm 9.6 5.7 9.3 98 0.2 SW 20 32 11 17 - - 0.2
23/06:00pm 9.6 5.3 9.3 98 0.2 SW 22 32 12 17 - - 0.2
23/05:30pm 9.5 5.5 9.0 97 0.3 SW 20 32 11 17 - - 0.0
23/05:00pm 9.6 5.2 9.0 96 0.3 SW 22 33 12 18 - - 0.0
23/04:30pm 9.9 5.1 8.8 93 0.6 SW 24 39 13 21 - - 0.0
23/04:00pm 10.1 5.5 8.2 88 0.9 SW 22 44 12 24 - - 0.0
23/03:30pm 10.4 5.5 8.5 88 0.9 SW 24 46 13 25 - - 0.0
23/03:12pm 10.5 4.8 8.3 86 1.1 SSW 28 48 15 26 - - 0.0
23/03:00pm 10.6 6.5 8.5 87 1.0 SW 20 33 11 18 - - 0.0
23/02:30pm 10.2 4.7 9.1 93 0.6 SW 28 43 15 23 - - 0.0
23/02:00pm 10.1 5.3 9.0 93 0.6 SW 24 39 13 21 - - 0.0
23/01:30pm 10.4 4.8 8.8 90 0.8 SW 28 43 15 23 - - 0.0
23/01:00pm 10.5 5.4 9.1 91 0.7 SW 26 52 14 28 - - 0.0
23/12:48pm 10.4 4.8 8.8 90 0.8 SW 28 46 15 25 - - 0.0
23/12:30pm 10.2 4.6 8.6 90 0.8 SW 28 43 15 23 - - 0.0
23/12:00pm 10.4 6.1 9.2 92 0.6 SW 22 33 12 18 - - 0.0
23/11:30am 9.8 5.7 8.7 93 0.5 SW 20 33 11 18 - - 0.0
23/11:00am 9.5 4.3 8.7 95 0.4 SW 26 41 14 22 - - 0.0
23/10:30am 9.3 4.5 9.0 98 0.2 SW 24 39 13 21 - - 0.0
23/10:00am 9.3 5.0 9.2 99 0.1 SW 22 41 12 22 - - 0.0
23/09:30am 8.7 3.8 8.6 99 0.0 SSW 24 35 13 19 - - 0.0
23/09:00am 8.6 4.1 8.5 99 0.0 SSW 22 35 12 19 - - 2.8
23/08:30am 8.4 2.7 8.3 99 0.0 SSW 28 41 15 22 - - 2.8
23/08:01am 8.4 2.7 8.3 99 0.0 SSW 28 46 15 25 - - 2.8
23/08:00am 8.4 2.3 8.3 99 0.0 SSW 30 46 16 25 - - 2.8
23/07:53am 8.4 2.7 8.3 99 0.0 SSW 28 46 15 25 - - 2.8
23/07:30am 8.2 2.8 8.1 99 0.0 SSW 26 43 14 23 - - 2.6
23/07:00am 8.2 3.2 8.1 99 0.0 SSW 24 37 13 20 - - 2.6
23/06:38am 8.4 2.3 8.3 99 0.0 SW 30 48 16 26 - - 2.6
23/06:30am 8.3 2.6 8.2 99 0.0 SW 28 44 15 24 - - 2.6
23/06:05am 8.6 2.9 8.5 99 0.0 SW 28 46 15 25 - - 2.4
23/06:00am 8.6 3.7 8.5 99 0.0 SW 24 46 13 25 - - 2.4
23/05:31am 8.7 3.1 8.6 99 0.0 SW 28 46 15 25 - - 2.0
23/05:30am 8.8 3.2 8.7 99 0.0 SW 28 43 15 23 - - 2.0
23/05:00am 9.0 4.6 8.9 99 0.0 SW 22 43 12 23 - - 2.0
23/04:30am 9.0 5.0 8.9 99 0.0 SW 20 32 11 17 - - 1.6
23/04:00am 9.1 5.1 9.0 99 0.0 SW 20 33 11 18 - - 1.6
23/03:30am 9.3 5.0 9.2 99 0.1 SW 22 35 12 19 - - 1.6
23/03:00am 9.4 5.7 9.3 99 0.1 SW 19 30 10 16 - - 1.4
23/02:30am 9.4 5.5 9.3 99 0.1 WSW 20 30 11 16 - - 1.2
23/02:00am 9.2 5.8 9.1 99 0.1 SW 17 26 9 14 - - 1.0
23/01:30am 9.3 5.3 9.2 99 0.1 SW 20 39 11 21 - - 1.0
23/01:00am 9.1 6.0 9.0 99 0.0 SW 15 20 8 11 - - 0.8
23/12:30am 8.6 5.4 8.5 99 0.0 SW 15 19 8 10 - - 0.6
23/12:00am 8.5 5.2 8.2 98 0.1 SW 15 20 8 11 - - 0.6
 
Date/Time
EST
Temp
°C
App
Temp
°C
Dew
Point
°C
Rel
Hum
%
Delta-T
°C
Wind Press
QNH
hPa
Press
MSL
hPa
Rain since
9am
mm
Dir  Spd
km/h
Gust
km/h
Spd
kts
Gust
kts
22/11:30pm 8.2 5.6 7.9 98 0.1 SW 11 19 6 10 - - 0.2
22/11:00pm 8.1 4.7 7.7 97 0.2 SW 15 20 8 11 - - 0.0
22/10:30pm 7.9 4.4 7.3 96 0.3 SW 15 24 8 13 - - 0.0
22/10:00pm 8.3 4.7 6.8 90 0.7 SW 15 26 8 14 - - 0.0
22/09:30pm 8.1 4.4 6.2 88 0.9 SW 15 20 8 11 - - 0.0
22/09:00pm 8.3 3.8 6.1 86 1.0 SW 19 26 10 14 - - 0.0
22/08:30pm 8.2 3.5 6.2 87 0.9 SW 20 28 11 15 - - 0.0
22/08:00pm 7.9 3.4 5.9 87 0.9 SW 19 28 10 15 - - 0.0
22/07:30pm 7.8 3.6 5.8 87 0.9 SW 17 26 9 14 - - 0.0
22/07:00pm 8.0 4.6 5.8 86 1.0 SW 13 20 7 11 - - 0.0
22/06:30pm 8.2 5.1 5.5 83 1.2 WSW 11 19 6 10 - - 0.0
22/06:00pm 8.1 3.2 5.2 82 1.3 SSW 20 35 11 19 - - 0.0
22/05:30pm 8.4 2.0 5.2 80 1.5 SSW 28 50 15 27 - - 0.0
22/05:25pm 8.4 2.0 5.2 80 1.5 SSW 28 46 15 25 - - 0.0
22/05:00pm 8.8 2.8 5.4 79 1.6 SSW 26 43 14 23 - - 0.0
22/04:30pm 9.0 1.9 5.4 78 1.7 SSW 32 44 17 24 - - 0.0
22/04:05pm 9.4 3.1 5.9 79 1.6 SSW 28 46 15 25 - - 0.0
22/04:00pm 9.5 2.5 5.9 78 1.7 SSW 32 46 17 25 - - 0.0
22/03:30pm 10.1 3.1 6.1 76 1.9 SSW 32 50 17 27 - - 0.0
22/03:03pm 10.2 4.0 6.0 75 2.0 SSW 28 50 15 27 - - 0.0
22/03:00pm 10.1 4.3 6.1 76 1.9 SSW 26 43 14 23 - - 0.0
22/02:30pm 10.5 2.9 5.9 73 2.2 SSW 35 56 19 30 - - 0.0
22/02:00pm 11.1 4.7 6.8 75 2.1 SSW 30 48 16 26 - - 0.0
22/01:30pm 11.5 4.0 6.4 71 2.5 SSW 35 59 19 32 - - 0.0
22/01:00pm 10.9 3.4 6.5 74 2.1 SSW 35 63 19 34 - - 0.0
22/12:30pm 10.5 2.5 5.9 73 2.2 SSW 37 65 20 35 - - 0.0
22/12:00pm 10.6 3.7 6.4 75 2.0 SSW 32 54 17 29 - - 0.0
22/11:30am 10.6 3.5 6.2 74 2.1 SSW 33 65 18 35 - - 0.0
22/11:00am 10.8 4.0 7.5 80 1.6 SSW 33 59 18 32 - - 0.0
22/10:30am 10.5 2.9 7.6 82 1.4 SSW 37 57 20 31 - - 0.0
22/10:00am 10.2 4.3 7.4 83 1.4 SSW 28 50 15 27 - - 0.0
22/09:30am 9.8 3.0 6.9 82 1.4 SSW 32 57 17 31 - - 0.0
22/09:00am 9.5 3.1 6.8 83 1.3 SSW 30 56 16 30 - - 5.8
22/08:30am 9.1 1.7 6.7 85 1.1 SSW 35 65 19 35 - - 5.8
22/08:00am 8.8 2.4 7.1 89 0.8 SSW 30 48 16 26 - - 5.8
22/07:30am 8.5 1.6 6.5 87 0.9 SSW 32 50 17 27 - - 5.8
22/07:00am 8.5 1.5 6.1 85 1.1 SSW 32 56 17 30 - - 5.8
22/06:30am 8.6 1.2 6.6 87 0.9 SSW 35 54 19 29 - - 5.8
22/06:00am 8.7 0.4 6.3 85 1.1 SSW 39 69 21 37 - - 5.8
22/05:30am 8.7 0.2 6.8 88 0.9 SSW 41 65 22 35 - - 5.6
22/05:00am 8.9 0.5 7.2 89 0.8 SSW 41 72 22 39 - - 5.6
22/04:30am 9.0 0.7 7.9 93 0.5 SSW 41 69 22 37 - - 5.6
22/04:00am 9.1 -0.1 8.0 93 0.5 SSW 46 74 25 40 - - 5.6
22/03:30am 9.4 -0.4 8.6 95 0.4 SSW 50 83 27 45 - - 5.6
22/03:00am 9.8 0.2 9.3 97 0.3 SSW 50 74 27 40 - - 5.6
22/02:30am 9.7 0.5 9.4 98 0.2 SSW 48 74 26 40 - - 5.6
22/02:00am 9.9 1.1 9.6 98 0.2 SSW 46 69 25 37 - - 5.6
22/01:30am 10.0 1.6 9.7 98 0.2 SW 44 74 24 40 - - 5.4
22/01:00am 10.1 1.4 10.0 99 0.1 SSW 46 76 25 41 - - 5.4
22/12:30am 10.3 2.6 10.1 99 0.1 SSW 41 67 22 36 - - 5.0
22/12:00am 10.2 2.9 10.1 99 0.1 SW 39 70 21 38 - - 4.6
 
Date/Time
EST
Temp
°C
App
Temp
°C
Dew
Point
°C
Rel
Hum
%
Delta-T
°C
Wind Press
QNH
hPa
Press
MSL
hPa
Rain since
9am
mm
Dir  Spd
km/h
Gust
km/h
Spd
kts
Gust
kts
21/11:30pm 10.2 4.0 10.1 99 0.1 SW 33 63 18 34 - - 4.6
21/11:00pm 10.0 2.2 9.7 98 0.2 SW 41 61 22 33 - - 4.2
21/10:30pm 10.0 3.9 9.7 98 0.2 SW 32 57 17 31 - - 4.0
21/10:00pm 9.8 3.0 9.3 97 0.3 SW 35 57 19 31 - - 3.6
21/09:30pm 9.7 2.9 9.4 98 0.2 SW 35 61 19 33 - - 3.6
21/09:00pm 9.4 2.9 9.1 98 0.2 SW 33 59 18 32 - - 3.6
21/08:30pm 9.2 1.9 8.6 96 0.3 SW 37 65 20 35 - - 3.4
21/08:00pm 9.1 1.3 8.3 95 0.4 SW 39 61 21 33 - - 3.4
21/07:30pm 9.1 1.0 8.5 96 0.3 SW 41 61 22 33 - - 3.4
21/07:00pm 9.5 2.6 8.9 96 0.3 SW 35 61 19 33 - - 3.2
21/06:30pm 9.3 2.7 8.5 95 0.4 SW 33 54 18 29 - - 3.2
21/06:00pm 9.5 2.2 8.9 96 0.3 SW 37 61 20 33 - - 3.2
21/05:30pm 9.7 2.9 9.4 98 0.2 SW 35 59 19 32 - - 3.0
21/05:00pm 9.6 3.8 9.3 98 0.2 SW 30 56 16 30 - - 3.0
21/04:30pm 9.7 4.3 9.4 98 0.2 SW 28 46 15 25 - - 2.4
21/04:02pm 9.4 3.9 9.1 98 0.2 WSW 28 48 15 26 - - 1.8
21/04:00pm 9.4 3.9 9.1 98 0.2 WSW 28 44 15 24 - - 1.8
21/03:30pm 9.5 4.0 9.0 97 0.3 SW 28 52 15 28 - - 1.6
21/03:06pm 9.3 3.7 8.7 96 0.3 SW 28 52 15 28 - - 1.6
21/03:00pm 9.3 4.5 8.7 96 0.3 SW 24 44 13 24 - - 1.6
21/02:34pm 9.1 3.4 8.5 96 0.3 SW 28 46 15 25 - - 1.4
21/02:30pm 9.2 4.3 8.6 96 0.3 SW 24 46 13 25 - - 1.4
21/02:09pm 9.1 3.5 8.6 97 0.2 WSW 28 48 15 26 - - 1.4
21/02:00pm 9.1 5.0 8.6 97 0.2 WSW 20 41 11 22 - - 1.4
21/01:30pm 9.2 4.4 8.9 98 0.1 SW 24 43 13 23 - - 1.4
21/01:00pm 8.8 2.4 8.5 98 0.1 WSW 32 65 17 35 - - 1.4
21/12:55pm 8.8 3.1 8.5 98 0.1 WSW 28 48 15 26 - - 1.2
21/12:30pm 8.8 4.9 8.5 98 0.1 WSW 19 33 10 18 - - 0.8

Other Formats:

Comma delimited format used in spreadsheet applications
http://www.bom.gov.au/fwo/IDT60801/IDT60801.95956.axf

JavaScript Object Notation format (JSON) in row-major order
http://www.bom.gov.au/fwo/IDT60801/IDT60801.95956.json